sensor_id;sensor_type;location;lat;lon;timestamp;temperature;humidity
29255;DHT22;16277;48.890;2.306;2023-09-08T00:13:23;28.90;91.70
29255;DHT22;16277;48.890;2.306;2023-09-08T00:28:27;28.70;92.40
29255;DHT22;16277;48.890;2.306;2023-09-08T00:43:32;28.70;92.90
29255;DHT22;16277;48.890;2.306;2023-09-08T00:58:36;28.60;93.70
29255;DHT22;16277;48.890;2.306;2023-09-08T01:13:43;28.10;94.10
29255;DHT22;16277;48.890;2.306;2023-09-08T01:28:49;28.40;93.90
29255;DHT22;16277;48.890;2.306;2023-09-08T01:43:54;28.30;93.80
29255;DHT22;16277;48.890;2.306;2023-09-08T01:58:59;28.30;94.30
29255;DHT22;16277;48.890;2.306;2023-09-08T02:14:03;28.30;94.70
29255;DHT22;16277;48.890;2.306;2023-09-08T02:29:08;28.10;95.10
29255;DHT22;16277;48.890;2.306;2023-09-08T02:44:13;28.20;95.40
29255;DHT22;16277;48.890;2.306;2023-09-08T02:59:17;28.00;95.90
29255;DHT22;16277;48.890;2.306;2023-09-08T03:14:22;27.90;96.10
29255;DHT22;16277;48.890;2.306;2023-09-08T03:29:27;28.00;96.10
29255;DHT22;16277;48.890;2.306;2023-09-08T03:44:31;27.90;95.80
29255;DHT22;16277;48.890;2.306;2023-09-08T03:59:36;27.90;96.00
29255;DHT22;16277;48.890;2.306;2023-09-08T04:14:41;27.80;95.20
29255;DHT22;16277;48.890;2.306;2023-09-08T04:29:45;27.80;95.40
29255;DHT22;16277;48.890;2.306;2023-09-08T04:44:50;27.60;95.70
29255;DHT22;16277;48.890;2.306;2023-09-08T04:59:55;27.60;95.70
29255;DHT22;16277;48.890;2.306;2023-09-08T05:15:00;27.50;95.90
29255;DHT22;16277;48.890;2.306;2023-09-08T05:30:13;27.50;96.00
29255;DHT22;16277;48.890;2.306;2023-09-08T05:45:17;27.50;96.20
29255;DHT22;16277;48.890;2.306;2023-09-08T06:00:22;27.40;96.20
29255;DHT22;16277;48.890;2.306;2023-09-08T06:15:28;27.50;96.60
29255;DHT22;16277;48.890;2.306;2023-09-08T06:30:33;27.60;96.90
29255;DHT22;16277;48.890;2.306;2023-09-08T06:45:56;27.60;96.50
29255;DHT22;16277;48.890;2.306;2023-09-08T07:01:01;27.60;96.30
29255;DHT22;16277;48.890;2.306;2023-09-08T07:16:06;27.60;96.00
29255;DHT22;16277;48.890;2.306;2023-09-08T07:31:12;27.60;94.80
29255;DHT22;16277;48.890;2.306;2023-09-08T07:46:19;27.70;94.40
29255;DHT22;16277;48.890;2.306;2023-09-08T08:01:24;27.70;94.10
29255;DHT22;16277;48.890;2.306;2023-09-08T08:16:29;27.90;94.30
29255;DHT22;16277;48.890;2.306;2023-09-08T08:31:33;28.00;94.40
29255;DHT22;16277;48.890;2.306;2023-09-08T08:46:38;28.10;94.20
29255;DHT22;16277;48.890;2.306;2023-09-08T09:01:45;28.10;94.00
29255;DHT22;16277;48.890;2.306;2023-09-08T09:16:50;28.20;93.70
29255;DHT22;16277;48.890;2.306;2023-09-08T09:31:56;28.40;93.90
29255;DHT22;16277;48.890;2.306;2023-09-08T09:47:19;28.50;94.00
29255;DHT22;16277;48.890;2.306;2023-09-08T10:02:25;28.60;94.10
29255;DHT22;16277;48.890;2.306;2023-09-08T10:17:30;28.80;94.10
29255;DHT22;16277;48.890;2.306;2023-09-08T10:32:37;29.00;94.00
29255;DHT22;16277;48.890;2.306;2023-09-08T10:47:56;29.20;93.20
29255;DHT22;16277;48.890;2.306;2023-09-08T11:03:04;29.30;92.30
29255;DHT22;16277;48.890;2.306;2023-09-08T11:18:10;30.10;90.70
29255;DHT22;16277;48.890;2.306;2023-09-08T11:33:16;29.70;91.00
29255;DHT22;16277;48.890;2.306;2023-09-08T11:48:20;30.10;88.20
29255;DHT22;16277;48.890;2.306;2023-09-08T12:03:25;30.30;86.00
29255;DHT22;16277;48.890;2.306;2023-09-08T12:18:39;30.30;83.10
29255;DHT22;16277;48.890;2.306;2023-09-08T12:33:44;30.70;85.10
29255;DHT22;16277;48.890;2.306;2023-09-08T12:48:49;30.90;83.40
29255;DHT22;16277;48.890;2.306;2023-09-08T13:03:53;31.30;82.80
29255;DHT22;16277;48.890;2.306;2023-09-08T13:18:58;31.60;81.20
29255;DHT22;16277;48.890;2.306;2023-09-08T13:34:06;31.80;79.60
29255;DHT22;16277;48.890;2.306;2023-09-08T13:49:11;32.40;78.50
29255;DHT22;16277;48.890;2.306;2023-09-08T14:04:17;33.00;77.40
29255;DHT22;16277;48.890;2.306;2023-09-08T14:19:27;35.00;69.10
29255;DHT22;16277;48.890;2.306;2023-09-08T14:34:32;36.00;65.00
29255;DHT22;16277;48.890;2.306;2023-09-08T14:49:37;36.80;61.50
29255;DHT22;16277;48.890;2.306;2023-09-08T15:04:41;36.00;65.30
29255;DHT22;16277;48.890;2.306;2023-09-08T15:19:46;36.40;61.20
29255;DHT22;16277;48.890;2.306;2023-09-08T15:34:50;36.60;61.10
29255;DHT22;16277;48.890;2.306;2023-09-08T15:50:13;36.70;60.00
29255;DHT22;16277;48.890;2.306;2023-09-08T16:05:18;35.90;62.20
29255;DHT22;16277;48.890;2.306;2023-09-08T16:20:23;36.00;59.40
29255;DHT22;16277;48.890;2.306;2023-09-08T16:35:27;35.20;63.30
29255;DHT22;16277;48.890;2.306;2023-09-08T16:50:32;34.60;66.00
29255;DHT22;16277;48.890;2.306;2023-09-08T17:05:36;34.10;67.70
29255;DHT22;16277;48.890;2.306;2023-09-08T17:20:45;33.70;68.80
29255;DHT22;16277;48.890;2.306;2023-09-08T17:35:50;33.50;69.80
29255;DHT22;16277;48.890;2.306;2023-09-08T17:50:55;33.30;71.20
29255;DHT22;16277;48.890;2.306;2023-09-08T18:05:59;32.80;71.40
29255;DHT22;16277;48.890;2.306;2023-09-08T18:21:04;32.50;72.90
29255;DHT22;16277;48.890;2.306;2023-09-08T18:36:08;32.20;73.40
29255;DHT22;16277;48.890;2.306;2023-09-08T18:51:13;32.00;75.20
29255;DHT22;16277;48.890;2.306;2023-09-08T19:06:18;31.80;75.20
29255;DHT22;16277;48.890;2.306;2023-09-08T19:21:23;31.70;76.30
29255;DHT22;16277;48.890;2.306;2023-09-08T19:36:27;31.60;77.20
29255;DHT22;16277;48.890;2.306;2023-09-08T19:51:31;31.50;77.70
29255;DHT22;16277;48.890;2.306;2023-09-08T20:06:36;31.40;77.70
29255;DHT22;16277;48.890;2.306;2023-09-08T20:21:41;31.30;78.20
29255;DHT22;16277;48.890;2.306;2023-09-08T20:37:05;31.20;78.20
29255;DHT22;16277;48.890;2.306;2023-09-08T20:52:10;31.10;79.00
29255;DHT22;16277;48.890;2.306;2023-09-08T21:07:16;30.90;80.70
29255;DHT22;16277;48.890;2.306;2023-09-08T21:22:21;30.70;79.00
29255;DHT22;16277;48.890;2.306;2023-09-08T21:37:25;30.60;81.00
29255;DHT22;16277;48.890;2.306;2023-09-08T21:52:30;30.30;80.20
29255;DHT22;16277;48.890;2.306;2023-09-08T22:07:41;30.40;81.50
29255;DHT22;16277;48.890;2.306;2023-09-08T22:22:46;30.40;81.90
29255;DHT22;16277;48.890;2.306;2023-09-08T22:37:50;30.30;81.80
29255;DHT22;16277;48.890;2.306;2023-09-08T22:52:55;30.30;82.50
29255;DHT22;16277;48.890;2.306;2023-09-08T23:08:00;30.20;82.10
29255;DHT22;16277;48.890;2.306;2023-09-08T23:23:05;30.20;83.80
29255;DHT22;16277;48.890;2.306;2023-09-08T23:38:09;30.10;83.80
29255;DHT22;16277;48.890;2.306;2023-09-08T23:53:32;30.00;83.50
